sensor_id;sensor_type;location;lat;lon;timestamp;P1;durP1;ratioP1;P2;durP2;ratioP2
8564;SDS011;4320;51.498;6.556;2023-05-14T00:02:19;10.73;;;8.80;;
8564;SDS011;4320;51.498;6.556;2023-05-14T00:04:45;10.55;;;9.32;;
8564;SDS011;4320;51.498;6.556;2023-05-14T00:07:10;11.05;;;9.40;;
8564;SDS011;4320;51.498;6.556;2023-05-14T00:09:36;11.23;;;9.50;;
8564;SDS011;4320;51.498;6.556;2023-05-14T00:12:02;11.55;;;10.23;;
8564;SDS011;4320;51.498;6.556;2023-05-14T00:14:28;12.38;;;9.48;;
8564;SDS011;4320;51.498;6.556;2023-05-14T00:16:53;12.85;;;9.82;;
8564;SDS011;4320;51.498;6.556;2023-05-14T00:19:19;11.45;;;10.23;;
8564;SDS011;4320;51.498;6.556;2023-05-14T00:21:45;11.57;;;10.02;;
8564;SDS011;4320;51.498;6.556;2023-05-14T00:24:11;10.93;;;9.75;;
8564;SDS011;4320;51.498;6.556;2023-05-14T00:26:37;12.50;;;10.85;;
8564;SDS011;4320;51.498;6.556;2023-05-14T00:29:02;13.75;;;10.40;;
8564;SDS011;4320;51.498;6.556;2023-05-14T00:31:28;14.07;;;10.52;;
8564;SDS011;4320;51.498;6.556;2023-05-14T00:33:54;11.43;;;10.35;;
8564;SDS011;4320;51.498;6.556;2023-05-14T00:36:19;14.07;;;10.25;;
8564;SDS011;4320;51.498;6.556;2023-05-14T00:38:45;13.27;;;10.55;;
8564;SDS011;4320;51.498;6.556;2023-05-14T00:41:11;14.57;;;11.02;;
8564;SDS011;4320;51.498;6.556;2023-05-14T00:43:36;12.93;;;10.57;;
8564;SDS011;4320;51.498;6.556;2023-05-14T00:46:02;17.13;;;11.02;;
8564;SDS011;4320;51.498;6.556;2023-05-14T00:48:28;14.93;;;11.25;;
8564;SDS011;4320;51.498;6.556;2023-05-14T00:50:54;11.80;;;10.63;;
8564;SDS011;4320;51.498;6.556;2023-05-14T00:53:19;15.85;;;11.70;;
8564;SDS011;4320;51.498;6.556;2023-05-14T00:55:45;14.93;;;11.30;;
8564;SDS011;4320;51.498;6.556;2023-05-14T00:58:13;18.55;;;11.30;;
8564;SDS011;4320;51.498;6.556;2023-05-14T01:00:39;12.45;;;11.15;;
8564;SDS011;4320;51.498;6.556;2023-05-14T01:03:06;12.23;;;10.48;;
8564;SDS011;4320;51.498;6.556;2023-05-14T01:05:35;14.25;;;10.68;;
8564;SDS011;4320;51.498;6.556;2023-05-14T01:08:38;13.68;;;9.77;;
8564;SDS011;4320;51.498;6.556;2023-05-14T01:14:44;11.80;;;10.38;;
8564;SDS011;4320;51.498;6.556;2023-05-14T01:17:19;11.73;;;10.50;;
8564;SDS011;4320;51.498;6.556;2023-05-14T01:19:47;12.43;;;11.13;;
8564;SDS011;4320;51.498;6.556;2023-05-14T01:22:13;12.93;;;11.20;;
8564;SDS011;4320;51.498;6.556;2023-05-14T01:24:39;13.00;;;11.23;;
8564;SDS011;4320;51.498;6.556;2023-05-14T01:32:22;15.70;;;12.70;;
8564;SDS011;4320;51.498;6.556;2023-05-14T01:34:49;17.75;;;13.63;;
8564;SDS011;4320;51.498;6.556;2023-05-14T01:37:16;13.85;;;12.10;;
8564;SDS011;4320;51.498;6.556;2023-05-14T01:39:42;11.50;;;10.27;;
8564;SDS011;4320;51.498;6.556;2023-05-14T01:42:08;15.88;;;10.63;;
8564;SDS011;4320;51.498;6.556;2023-05-14T01:44:34;11.73;;;10.43;;
8564;SDS011;4320;51.498;6.556;2023-05-14T01:47:00;11.68;;;10.48;;
8564;SDS011;4320;51.498;6.556;2023-05-14T01:49:26;11.95;;;10.63;;
8564;SDS011;4320;51.498;6.556;2023-05-14T01:51:51;13.55;;;10.90;;
8564;SDS011;4320;51.498;6.556;2023-05-14T01:54:17;14.00;;;10.75;;
8564;SDS011;4320;51.498;6.556;2023-05-14T01:56:43;13.75;;;11.38;;
8564;SDS011;4320;51.498;6.556;2023-05-14T01:59:08;13.73;;;10.75;;
8564;SDS011;4320;51.498;6.556;2023-05-14T02:01:34;15.98;;;11.18;;
8564;SDS011;4320;51.498;6.556;2023-05-14T02:03:59;14.65;;;11.85;;
8564;SDS011;4320;51.498;6.556;2023-05-14T02:06:25;14.23;;;10.77;;
8564;SDS011;4320;51.498;6.556;2023-05-14T02:08:51;11.85;;;10.65;;
8564;SDS011;4320;51.498;6.556;2023-05-14T02:11:17;11.45;;;10.15;;
8564;SDS011;4320;51.498;6.556;2023-05-14T02:13:42;12.85;;;10.43;;
8564;SDS011;4320;51.498;6.556;2023-05-14T02:16:08;11.45;;;10.40;;
8564;SDS011;4320;51.498;6.556;2023-05-14T02:18:34;14.38;;;10.68;;
8564;SDS011;4320;51.498;6.556;2023-05-14T02:20:59;12.05;;;10.85;;
8564;SDS011;4320;51.498;6.556;2023-05-14T02:23:25;13.27;;;11.88;;
8564;SDS011;4320;51.498;6.556;2023-05-14T02:25:50;11.70;;;10.32;;
8564;SDS011;4320;51.498;6.556;2023-05-14T02:28:16;12.68;;;11.07;;
8564;SDS011;4320;51.498;6.556;2023-05-14T02:30:41;11.85;;;10.73;;
8564;SDS011;4320;51.498;6.556;2023-05-14T02:33:07;12.15;;;10.48;;
8564;SDS011;4320;51.498;6.556;2023-05-14T02:35:33;11.48;;;10.27;;
8564;SDS011;4320;51.498;6.556;2023-05-14T02:37:58;13.82;;;11.07;;
8564;SDS011;4320;51.498;6.556;2023-05-14T02:40:24;12.05;;;10.77;;
8564;SDS011;4320;51.498;6.556;2023-05-14T02:42:50;12.15;;;10.73;;
8564;SDS011;4320;51.498;6.556;2023-05-14T02:45:15;15.68;;;11.10;;
8564;SDS011;4320;51.498;6.556;2023-05-14T02:47:41;12.40;;;11.10;;
8564;SDS011;4320;51.498;6.556;2023-05-14T02:50:07;15.02;;;11.70;;
8564;SDS011;4320;51.498;6.556;2023-05-14T02:52:33;14.65;;;11.50;;
8564;SDS011;4320;51.498;6.556;2023-05-14T02:54:59;12.77;;;11.48;;
8564;SDS011;4320;51.498;6.556;2023-05-14T02:57:25;14.88;;;10.45;;
8564;SDS011;4320;51.498;6.556;2023-05-14T02:59:51;12.35;;;11.05;;
8564;SDS011;4320;51.498;6.556;2023-05-14T03:02:16;12.15;;;10.60;;
8564;SDS011;4320;51.498;6.556;2023-05-14T03:04:42;13.68;;;12.07;;
8564;SDS011;4320;51.498;6.556;2023-05-14T03:07:08;15.48;;;12.57;;
8564;SDS011;4320;51.498;6.556;2023-05-14T03:09:33;14.63;;;11.88;;
8564;SDS011;4320;51.498;6.556;2023-05-14T03:11:59;13.88;;;11.32;;
8564;SDS011;4320;51.498;6.556;2023-05-14T03:14:24;12.57;;;11.38;;
8564;SDS011;4320;51.498;6.556;2023-05-14T03:16:50;13.65;;;12.00;;
8564;SDS011;4320;51.498;6.556;2023-05-14T03:19:16;16.40;;;13.48;;
8564;SDS011;4320;51.498;6.556;2023-05-14T03:21:41;16.35;;;12.18;;
8564;SDS011;4320;51.498;6.556;2023-05-14T03:24:07;13.82;;;12.43;;
8564;SDS011;4320;51.498;6.556;2023-05-14T03:26:32;20.52;;;15.20;;
8564;SDS011;4320;51.498;6.556;2023-05-14T03:28:58;13.35;;;11.38;;
8564;SDS011;4320;51.498;6.556;2023-05-14T03:31:24;15.38;;;12.02;;
8564;SDS011;4320;51.498;6.556;2023-05-14T03:33:50;13.27;;;11.65;;
8564;SDS011;4320;51.498;6.556;2023-05-14T03:36:16;16.30;;;12.50;;
8564;SDS011;4320;51.498;6.556;2023-05-14T03:38:41;15.95;;;11.80;;
8564;SDS011;4320;51.498;6.556;2023-05-14T03:41:07;14.88;;;12.45;;
8564;SDS011;4320;51.498;6.556;2023-05-14T03:43:33;18.00;;;12.02;;
8564;SDS011;4320;51.498;6.556;2023-05-14T03:45:59;14.68;;;10.98;;
8564;SDS011;4320;51.498;6.556;2023-05-14T03:48:24;14.93;;;12.32;;
8564;SDS011;4320;51.498;6.556;2023-05-14T03:50:50;13.65;;;11.95;;
8564;SDS011;4320;51.498;6.556;2023-05-14T03:53:16;14.40;;;11.32;;
8564;SDS011;4320;51.498;6.556;2023-05-14T03:55:41;17.42;;;11.95;;
8564;SDS011;4320;51.498;6.556;2023-05-14T03:58:07;16.83;;;12.48;;
8564;SDS011;4320;51.498;6.556;2023-05-14T04:00:38;15.15;;;10.95;;
8564;SDS011;4320;51.498;6.556;2023-05-14T04:03:07;15.88;;;11.27;;
8564;SDS011;4320;51.498;6.556;2023-05-14T04:05:33;14.68;;;11.13;;
8564;SDS011;4320;51.498;6.556;2023-05-14T04:07:59;13.60;;;10.88;;
8564;SDS011;4320;51.498;6.556;2023-05-14T04:10:25;11.50;;;10.30;;
8564;SDS011;4320;51.498;6.556;2023-05-14T04:12:51;12.05;;;10.82;;
8564;SDS011;4320;51.498;6.556;2023-05-14T04:15:16;15.13;;;11.73;;
8564;SDS011;4320;51.498;6.556;2023-05-14T04:17:42;16.65;;;11.85;;
8564;SDS011;4320;51.498;6.556;2023-05-14T04:20:08;14.73;;;11.20;;
8564;SDS011;4320;51.498;6.556;2023-05-14T04:22:34;15.32;;;10.70;;
8564;SDS011;4320;51.498;6.556;2023-05-14T04:24:59;13.30;;;11.05;;
8564;SDS011;4320;51.498;6.556;2023-05-14T04:27:25;12.52;;;11.00;;
8564;SDS011;4320;51.498;6.556;2023-05-14T04:29:51;12.68;;;11.38;;
8564;SDS011;4320;51.498;6.556;2023-05-14T04:32:16;15.27;;;11.45;;
8564;SDS011;4320;51.498;6.556;2023-05-14T04:34:42;13.40;;;10.40;;
8564;SDS011;4320;51.498;6.556;2023-05-14T04:37:08;17.02;;;11.18;;
8564;SDS011;4320;51.498;6.556;2023-05-14T04:39:34;12.27;;;10.98;;
8564;SDS011;4320;51.498;6.556;2023-05-14T04:41:59;12.63;;;11.35;;
8564;SDS011;4320;51.498;6.556;2023-05-14T04:44:25;13.70;;;11.10;;
8564;SDS011;4320;51.498;6.556;2023-05-14T04:46:51;13.98;;;11.65;;
8564;SDS011;4320;51.498;6.556;2023-05-14T04:49:16;12.35;;;11.15;;
8564;SDS011;4320;51.498;6.556;2023-05-14T04:51:42;12.45;;;11.25;;
8564;SDS011;4320;51.498;6.556;2023-05-14T04:54:07;13.90;;;11.50;;
8564;SDS011;4320;51.498;6.556;2023-05-14T04:56:33;13.27;;;11.70;;
8564;SDS011;4320;51.498;6.556;2023-05-14T04:58:59;16.67;;;11.63;;
8564;SDS011;4320;51.498;6.556;2023-05-14T05:01:25;14.40;;;11.50;;
8564;SDS011;4320;51.498;6.556;2023-05-14T05:03:50;12.63;;;11.32;;
8564;SDS011;4320;51.498;6.556;2023-05-14T05:06:16;13.00;;;11.50;;
8564;SDS011;4320;51.498;6.556;2023-05-14T05:08:42;14.68;;;12.07;;
8564;SDS011;4320;51.498;6.556;2023-05-14T05:11:07;12.52;;;11.23;;
8564;SDS011;4320;51.498;6.556;2023-05-14T05:13:33;13.43;;;11.05;;
8564;SDS011;4320;51.498;6.556;2023-05-14T05:15:58;13.43;;;10.88;;
8564;SDS011;4320;51.498;6.556;2023-05-14T05:18:24;11.75;;;10.55;;
8564;SDS011;4320;51.498;6.556;2023-05-14T05:20:50;13.73;;;10.73;;
8564;SDS011;4320;51.498;6.556;2023-05-14T05:23:15;15.35;;;11.02;;
8564;SDS011;4320;51.498;6.556;2023-05-14T05:25:41;13.13;;;11.65;;
8564;SDS011;4320;51.498;6.556;2023-05-14T05:28:06;13.27;;;10.40;;
8564;SDS011;4320;51.498;6.556;2023-05-14T05:30:32;15.27;;;10.52;;
8564;SDS011;4320;51.498;6.556;2023-05-14T05:32:58;11.27;;;10.18;;
8564;SDS011;4320;51.498;6.556;2023-05-14T05:35:23;11.45;;;10.18;;
8564;SDS011;4320;51.498;6.556;2023-05-14T05:37:49;11.48;;;10.27;;
8564;SDS011;4320;51.498;6.556;2023-05-14T05:40:15;11.02;;;9.60;;
8564;SDS011;4320;51.498;6.556;2023-05-14T05:42:41;11.57;;;10.48;;
8564;SDS011;4320;51.498;6.556;2023-05-14T05:45:06;13.40;;;10.93;;
8564;SDS011;4320;51.498;6.556;2023-05-14T05:47:32;16.23;;;9.52;;
8564;SDS011;4320;51.498;6.556;2023-05-14T05:49:58;11.93;;;10.40;;
8564;SDS011;4320;51.498;6.556;2023-05-14T05:52:24;14.88;;;10.23;;
8564;SDS011;4320;51.498;6.556;2023-05-14T05:54:49;13.68;;;11.02;;
8564;SDS011;4320;51.498;6.556;2023-05-14T05:57:15;11.98;;;10.77;;
8564;SDS011;4320;51.498;6.556;2023-05-14T05:59:41;11.38;;;10.27;;
8564;SDS011;4320;51.498;6.556;2023-05-14T06:02:07;12.18;;;10.63;;
8564;SDS011;4320;51.498;6.556;2023-05-14T06:04:32;13.23;;;10.82;;
8564;SDS011;4320;51.498;6.556;2023-05-14T06:06:58;12.07;;;10.95;;
8564;SDS011;4320;51.498;6.556;2023-05-14T06:09:23;12.00;;;10.63;;
8564;SDS011;4320;51.498;6.556;2023-05-14T06:11:49;15.23;;;10.75;;
8564;SDS011;4320;51.498;6.556;2023-05-14T06:14:15;15.18;;;10.23;;
8564;SDS011;4320;51.498;6.556;2023-05-14T06:16:40;11.85;;;10.55;;
8564;SDS011;4320;51.498;6.556;2023-05-14T06:19:06;11.63;;;10.48;;
8564;SDS011;4320;51.498;6.556;2023-05-14T06:21:32;12.75;;;9.82;;
8564;SDS011;4320;51.498;6.556;2023-05-14T06:23:58;12.73;;;10.90;;
8564;SDS011;4320;51.498;6.556;2023-05-14T06:26:23;13.32;;;11.35;;
8564;SDS011;4320;51.498;6.556;2023-05-14T06:28:50;11.57;;;10.30;;
8564;SDS011;4320;51.498;6.556;2023-05-14T06:31:16;17.05;;;11.10;;
8564;SDS011;4320;51.498;6.556;2023-05-14T06:33:42;14.52;;;10.63;;
8564;SDS011;4320;51.498;6.556;2023-05-14T06:36:09;12.95;;;11.30;;
8564;SDS011;4320;51.498;6.556;2023-05-14T06:38:35;12.40;;;11.10;;
8564;SDS011;4320;51.498;6.556;2023-05-14T06:41:01;18.17;;;10.75;;
8564;SDS011;4320;51.498;6.556;2023-05-14T06:43:26;12.40;;;10.18;;
8564;SDS011;4320;51.498;6.556;2023-05-14T06:45:52;14.38;;;11.73;;
8564;SDS011;4320;51.498;6.556;2023-05-14T06:48:18;13.13;;;11.18;;
8564;SDS011;4320;51.498;6.556;2023-05-14T06:50:44;11.88;;;10.30;;
8564;SDS011;4320;51.498;6.556;2023-05-14T06:53:11;12.13;;;10.98;;
8564;SDS011;4320;51.498;6.556;2023-05-14T06:55:36;13.57;;;11.50;;
8564;SDS011;4320;51.498;6.556;2023-05-14T06:58:02;12.85;;;11.55;;
8564;SDS011;4320;51.498;6.556;2023-05-14T07:00:30;12.55;;;11.25;;
8564;SDS011;4320;51.498;6.556;2023-05-14T07:02:55;14.13;;;12.45;;
8564;SDS011;4320;51.498;6.556;2023-05-14T07:05:21;14.32;;;11.40;;
8564;SDS011;4320;51.498;6.556;2023-05-14T07:07:47;12.85;;;11.55;;
8564;SDS011;4320;51.498;6.556;2023-05-14T07:10:12;14.35;;;12.85;;
8564;SDS011;4320;51.498;6.556;2023-05-14T07:12:38;14.60;;;11.95;;
8564;SDS011;4320;51.498;6.556;2023-05-14T07:15:03;15.50;;;12.85;;
8564;SDS011;4320;51.498;6.556;2023-05-14T07:17:29;14.63;;;12.98;;
8564;SDS011;4320;51.498;6.556;2023-05-14T07:19:55;14.02;;;12.32;;
8564;SDS011;4320;51.498;6.556;2023-05-14T07:22:21;13.43;;;12.10;;
8564;SDS011;4320;51.498;6.556;2023-05-14T07:24:46;14.40;;;12.85;;
8564;SDS011;4320;51.498;6.556;2023-05-14T07:27:13;13.75;;;12.40;;
8564;SDS011;4320;51.498;6.556;2023-05-14T07:29:38;14.27;;;12.82;;
8564;SDS011;4320;51.498;6.556;2023-05-14T07:32:04;14.73;;;12.82;;
8564;SDS011;4320;51.498;6.556;2023-05-14T07:34:30;16.50;;;11.63;;
8564;SDS011;4320;51.498;6.556;2023-05-14T07:36:55;14.15;;;12.75;;
8564;SDS011;4320;51.498;6.556;2023-05-14T07:39:21;13.43;;;12.02;;
8564;SDS011;4320;51.498;6.556;2023-05-14T07:41:47;13.93;;;11.77;;
8564;SDS011;4320;51.498;6.556;2023-05-14T07:44:14;20.27;;;12.10;;
8564;SDS011;4320;51.498;6.556;2023-05-14T07:46:41;13.02;;;11.82;;
8564;SDS011;4320;51.498;6.556;2023-05-14T07:49:06;13.30;;;11.98;;
8564;SDS011;4320;51.498;6.556;2023-05-14T07:51:32;16.77;;;12.63;;
8564;SDS011;4320;51.498;6.556;2023-05-14T07:53:58;12.18;;;10.93;;
8564;SDS011;4320;51.498;6.556;2023-05-14T07:56:23;13.63;;;11.55;;
8564;SDS011;4320;51.498;6.556;2023-05-14T07:58:49;13.43;;;10.60;;
8564;SDS011;4320;51.498;6.556;2023-05-14T08:01:15;13.90;;;11.48;;
8564;SDS011;4320;51.498;6.556;2023-05-14T08:03:41;12.90;;;11.60;;
8564;SDS011;4320;51.498;6.556;2023-05-14T08:06:07;13.75;;;10.98;;
8564;SDS011;4320;51.498;6.556;2023-05-14T08:08:32;16.58;;;11.05;;
8564;SDS011;4320;51.498;6.556;2023-05-14T08:10:58;12.82;;;11.40;;
8564;SDS011;4320;51.498;6.556;2023-05-14T08:13:24;15.88;;;11.80;;
8564;SDS011;4320;51.498;6.556;2023-05-14T08:15:50;12.82;;;11.00;;
8564;SDS011;4320;51.498;6.556;2023-05-14T08:18:16;12.75;;;10.57;;
8564;SDS011;4320;51.498;6.556;2023-05-14T08:20:41;12.30;;;11.05;;
8564;SDS011;4320;51.498;6.556;2023-05-14T08:23:07;12.77;;;11.48;;
8564;SDS011;4320;51.498;6.556;2023-05-14T08:25:33;11.50;;;10.35;;
8564;SDS011;4320;51.498;6.556;2023-05-14T08:27:58;12.10;;;10.88;;
8564;SDS011;4320;51.498;6.556;2023-05-14T08:30:25;12.93;;;11.57;;
8564;SDS011;4320;51.498;6.556;2023-05-14T08:32:51;12.90;;;11.60;;
8564;SDS011;4320;51.498;6.556;2023-05-14T08:35:17;12.68;;;11.35;;
8564;SDS011;4320;51.498;6.556;2023-05-14T08:37:43;13.30;;;10.60;;
8564;SDS011;4320;51.498;6.556;2023-05-14T08:40:09;15.32;;;11.32;;
8564;SDS011;4320;51.498;6.556;2023-05-14T08:42:36;15.20;;;10.07;;
8564;SDS011;4320;51.498;6.556;2023-05-14T08:45:04;16.30;;;11.07;;
8564;SDS011;4320;51.498;6.556;2023-05-14T08:47:38;14.23;;;9.93;;
8564;SDS011;4320;51.498;6.556;2023-05-14T08:50:04;13.80;;;10.63;;
8564;SDS011;4320;51.498;6.556;2023-05-14T08:52:33;13.27;;;10.32;;
8564;SDS011;4320;51.498;6.556;2023-05-14T08:55:00;14.52;;;9.55;;
8564;SDS011;4320;51.498;6.556;2023-05-14T08:57:28;13.35;;;9.73;;
8564;SDS011;4320;51.498;6.556;2023-05-14T08:59:56;12.18;;;9.52;;
8564;SDS011;4320;51.498;6.556;2023-05-14T09:02:23;12.27;;;9.68;;
8564;SDS011;4320;51.498;6.556;2023-05-14T09:04:54;10.45;;;9.45;;
8564;SDS011;4320;51.498;6.556;2023-05-14T09:07:21;10.60;;;9.23;;
8564;SDS011;4320;51.498;6.556;2023-05-14T09:09:47;10.80;;;9.45;;
8564;SDS011;4320;51.498;6.556;2023-05-14T09:12:13;16.80;;;9.75;;
8564;SDS011;4320;51.498;6.556;2023-05-14T09:14:39;12.40;;;9.70;;
8564;SDS011;4320;51.498;6.556;2023-05-14T09:17:05;10.80;;;9.70;;
8564;SDS011;4320;51.498;6.556;2023-05-14T09:19:32;11.43;;;9.52;;
8564;SDS011;4320;51.498;6.556;2023-05-14T09:21:58;11.93;;;9.30;;
8564;SDS011;4320;51.498;6.556;2023-05-14T09:24:24;9.60;;;8.27;;
8564;SDS011;4320;51.498;6.556;2023-05-14T09:27:00;9.25;;;8.30;;
8564;SDS011;4320;51.498;6.556;2023-05-14T09:29:27;10.15;;;7.68;;
8564;SDS011;4320;51.498;6.556;2023-05-14T09:31:54;8.25;;;7.45;;
8564;SDS011;4320;51.498;6.556;2023-05-14T09:34:33;11.07;;;6.70;;
8564;SDS011;4320;51.498;6.556;2023-05-14T09:37:02;9.07;;;6.22;;
8564;SDS011;4320;51.498;6.556;2023-05-14T09:39:29;6.63;;;6.03;;
8564;SDS011;4320;51.498;6.556;2023-05-14T09:41:56;7.13;;;6.10;;
8564;SDS011;4320;51.498;6.556;2023-05-14T09:44:22;10.15;;;5.60;;
8564;SDS011;4320;51.498;6.556;2023-05-14T09:46:48;6.60;;;5.93;;
8564;SDS011;4320;51.498;6.556;2023-05-14T09:49:14;8.05;;;6.65;;
8564;SDS011;4320;51.498;6.556;2023-05-14T09:51:40;7.53;;;6.20;;
8564;SDS011;4320;51.498;6.556;2023-05-14T09:54:06;5.93;;;5.32;;
8564;SDS011;4320;51.498;6.556;2023-05-14T09:56:33;9.57;;;6.78;;
8564;SDS011;4320;51.498;6.556;2023-05-14T09:58:59;7.93;;;5.63;;
8564;SDS011;4320;51.498;6.556;2023-05-14T10:01:25;9.20;;;7.07;;
8564;SDS011;4320;51.498;6.556;2023-05-14T10:03:53;7.80;;;7.07;;
8564;SDS011;4320;51.498;6.556;2023-05-14T10:06:20;8.45;;;7.03;;
8564;SDS011;4320;51.498;6.556;2023-05-14T10:08:50;8.02;;;7.03;;
8564;SDS011;4320;51.498;6.556;2023-05-14T10:11:21;8.68;;;7.35;;
8564;SDS011;4320;51.498;6.556;2023-05-14T10:14:02;7.75;;;6.38;;
8564;SDS011;4320;51.498;6.556;2023-05-14T10:16:33;8.25;;;6.90;;
8564;SDS011;4320;51.498;6.556;2023-05-14T10:19:06;6.85;;;6.13;;
8564;SDS011;4320;51.498;6.556;2023-05-14T10:21:35;8.05;;;6.50;;
8564;SDS011;4320;51.498;6.556;2023-05-14T10:24:03;6.68;;;5.30;;
8564;SDS011;4320;51.498;6.556;2023-05-14T10:26:30;11.45;;;5.20;;
8564;SDS011;4320;51.498;6.556;2023-05-14T10:28:57;8.32;;;5.57;;
8564;SDS011;4320;51.498;6.556;2023-05-14T10:31:43;5.60;;;4.95;;
8564;SDS011;4320;51.498;6.556;2023-05-14T10:36:58;11.95;;;6.95;;
8564;SDS011;4320;51.498;6.556;2023-05-14T10:39:41;8.05;;;7.25;;
8564;SDS011;4320;51.498;6.556;2023-05-14T10:42:26;9.70;;;6.15;;
8564;SDS011;4320;51.498;6.556;2023-05-14T10:45:01;7.65;;;4.75;;
8564;SDS011;4320;51.498;6.556;2023-05-14T10:47:35;3.70;;;3.40;;
8564;SDS011;4320;51.498;6.556;2023-05-14T10:50:06;4.68;;;4.13;;
8564;SDS011;4320;51.498;6.556;2023-05-14T10:52:34;5.35;;;3.67;;
8564;SDS011;4320;51.498;6.556;2023-05-14T10:55:00;7.43;;;6.07;;
8564;SDS011;4320;51.498;6.556;2023-05-14T10:57:28;5.90;;;3.33;;
8564;SDS011;4320;51.498;6.556;2023-05-14T10:59:58;8.68;;;4.80;;
8564;SDS011;4320;51.498;6.556;2023-05-14T11:02:35;6.97;;;3.50;;
8564;SDS011;4320;51.498;6.556;2023-05-14T11:05:05;5.25;;;3.33;;
8564;SDS011;4320;51.498;6.556;2023-05-14T11:07:36;6.82;;;3.20;;
8564;SDS011;4320;51.498;6.556;2023-05-14T11:10:07;3.10;;;2.80;;
8564;SDS011;4320;51.498;6.556;2023-05-14T11:12:39;4.32;;;3.67;;
8564;SDS011;4320;51.498;6.556;2023-05-14T11:15:10;6.47;;;3.47;;
8564;SDS011;4320;51.498;6.556;2023-05-14T11:17:38;4.43;;;2.83;;
8564;SDS011;4320;51.498;6.556;2023-05-14T11:20:05;5.85;;;3.30;;
8564;SDS011;4320;51.498;6.556;2023-05-14T11:22:35;5.95;;;4.35;;
8564;SDS011;4320;51.498;6.556;2023-05-14T11:25:02;6.60;;;5.55;;
8564;SDS011;4320;51.498;6.556;2023-05-14T11:27:28;9.07;;;5.60;;
8564;SDS011;4320;51.498;6.556;2023-05-14T11:29:57;7.20;;;4.45;;
8564;SDS011;4320;51.498;6.556;2023-05-14T11:32:24;7.68;;;4.68;;
8564;SDS011;4320;51.498;6.556;2023-05-14T11:34:50;6.70;;;4.00;;
8564;SDS011;4320;51.498;6.556;2023-05-14T11:37:16;7.10;;;3.95;;
8564;SDS011;4320;51.498;6.556;2023-05-14T11:39:45;4.93;;;3.95;;
8564;SDS011;4320;51.498;6.556;2023-05-14T11:42:13;6.90;;;3.55;;
8564;SDS011;4320;51.498;6.556;2023-05-14T11:44:41;7.18;;;4.20;;
8564;SDS011;4320;51.498;6.556;2023-05-14T11:47:08;4.95;;;3.90;;
8564;SDS011;4320;51.498;6.556;2023-05-14T11:49:35;10.45;;;4.10;;
8564;SDS011;4320;51.498;6.556;2023-05-14T11:52:03;5.60;;;3.30;;
8564;SDS011;4320;51.498;6.556;2023-05-14T11:54:30;4.38;;;3.97;;
8564;SDS011;4320;51.498;6.556;2023-05-14T11:56:57;4.70;;;4.00;;
8564;SDS011;4320;51.498;6.556;2023-05-14T11:59:24;5.22;;;3.60;;
8564;SDS011;4320;51.498;6.556;2023-05-14T12:01:55;6.28;;;3.50;;
8564;SDS011;4320;51.498;6.556;2023-05-14T12:04:21;6.15;;;3.92;;
8564;SDS011;4320;51.498;6.556;2023-05-14T12:06:47;7.78;;;3.85;;
8564;SDS011;4320;51.498;6.556;2023-05-14T12:09:14;10.38;;;4.10;;
8564;SDS011;4320;51.498;6.556;2023-05-14T12:11:42;5.25;;;3.67;;
8564;SDS011;4320;51.498;6.556;2023-05-14T12:14:09;5.03;;;3.95;;
8564;SDS011;4320;51.498;6.556;2023-05-14T12:16:38;9.43;;;3.92;;
8564;SDS011;4320;51.498;6.556;2023-05-14T12:19:05;5.97;;;3.38;;
8564;SDS011;4320;51.498;6.556;2023-05-14T12:21:34;4.88;;;3.67;;
8564;SDS011;4320;51.498;6.556;2023-05-14T12:24:00;4.28;;;3.58;;
8564;SDS011;4320;51.498;6.556;2023-05-14T12:26:26;4.47;;;3.20;;
8564;SDS011;4320;51.498;6.556;2023-05-14T12:28:56;6.55;;;3.25;;
8564;SDS011;4320;51.498;6.556;2023-05-14T12:31:28;5.50;;;3.10;;
8564;SDS011;4320;51.498;6.556;2023-05-14T12:34:00;4.40;;;3.20;;
8564;SDS011;4320;51.498;6.556;2023-05-14T12:36:27;4.03;;;3.60;;
8564;SDS011;4320;51.498;6.556;2023-05-14T12:38:58;7.05;;;3.55;;
8564;SDS011;4320;51.498;6.556;2023-05-14T12:41:31;3.13;;;2.83;;
8564;SDS011;4320;51.498;6.556;2023-05-14T12:43:57;4.43;;;2.63;;
8564;SDS011;4320;51.498;6.556;2023-05-14T12:46:24;5.30;;;2.60;;
8564;SDS011;4320;51.498;6.556;2023-05-14T12:48:51;7.68;;;3.40;;
8564;SDS011;4320;51.498;6.556;2023-05-14T12:51:18;3.45;;;3.15;;
8564;SDS011;4320;51.498;6.556;2023-05-14T12:53:43;4.57;;;3.30;;
8564;SDS011;4320;51.498;6.556;2023-05-14T12:56:10;5.85;;;3.40;;
8564;SDS011;4320;51.498;6.556;2023-05-14T12:58:36;9.00;;;3.42;;
8564;SDS011;4320;51.498;6.556;2023-05-14T13:01:03;4.88;;;3.10;;
8564;SDS011;4320;51.498;6.556;2023-05-14T13:03:29;3.53;;;3.22;;
8564;SDS011;4320;51.498;6.556;2023-05-14T13:05:54;17.63;;;8.90;;
8564;SDS011;4320;51.498;6.556;2023-05-14T13:08:24;6.93;;;5.82;;
8564;SDS011;4320;51.498;6.556;2023-05-14T13:10:53;4.38;;;3.97;;
8564;SDS011;4320;51.498;6.556;2023-05-14T13:13:19;5.80;;;3.00;;
8564;SDS011;4320;51.498;6.556;2023-05-14T13:15:45;5.20;;;3.25;;
8564;SDS011;4320;51.498;6.556;2023-05-14T13:18:12;4.45;;;2.63;;
8564;SDS011;4320;51.498;6.556;2023-05-14T13:20:38;2.85;;;2.63;;
8564;SDS011;4320;51.498;6.556;2023-05-14T13:23:03;4.13;;;2.50;;
8564;SDS011;4320;51.498;6.556;2023-05-14T13:25:29;8.40;;;3.97;;
8564;SDS011;4320;51.498;6.556;2023-05-14T13:27:55;6.75;;;4.82;;
8564;SDS011;4320;51.498;6.556;2023-05-14T13:30:20;7.47;;;3.85;;
8564;SDS011;4320;51.498;6.556;2023-05-14T13:32:46;4.28;;;3.75;;
8564;SDS011;4320;51.498;6.556;2023-05-14T13:35:12;4.03;;;3.63;;
8564;SDS011;4320;51.498;6.556;2023-05-14T13:37:38;10.63;;;6.95;;
8564;SDS011;4320;51.498;6.556;2023-05-14T13:40:03;4.80;;;3.50;;
8564;SDS011;4320;51.498;6.556;2023-05-14T13:42:33;3.70;;;2.50;;
8564;SDS011;4320;51.498;6.556;2023-05-14T13:44:59;5.15;;;4.18;;
8564;SDS011;4320;51.498;6.556;2023-05-14T13:47:25;3.55;;;2.67;;
8564;SDS011;4320;51.498;6.556;2023-05-14T13:49:51;6.25;;;2.60;;
8564;SDS011;4320;51.498;6.556;2023-05-14T13:52:17;4.35;;;2.70;;
8564;SDS011;4320;51.498;6.556;2023-05-14T13:54:43;5.22;;;2.40;;
8564;SDS011;4320;51.498;6.556;2023-05-14T13:57:08;4.57;;;2.92;;
8564;SDS011;4320;51.498;6.556;2023-05-14T13:59:34;3.80;;;2.65;;
8564;SDS011;4320;51.498;6.556;2023-05-14T14:02:01;7.47;;;3.22;;
8564;SDS011;4320;51.498;6.556;2023-05-14T14:04:26;5.88;;;2.85;;
8564;SDS011;4320;51.498;6.556;2023-05-14T14:06:55;5.90;;;2.90;;
8564;SDS011;4320;51.498;6.556;2023-05-14T14:09:21;4.55;;;3.60;;
8564;SDS011;4320;51.498;6.556;2023-05-14T14:11:47;9.93;;;3.75;;
8564;SDS011;4320;51.498;6.556;2023-05-14T14:14:13;7.78;;;3.42;;
8564;SDS011;4320;51.498;6.556;2023-05-14T14:16:39;5.80;;;3.58;;
8564;SDS011;4320;51.498;6.556;2023-05-14T14:19:05;7.20;;;3.78;;
8564;SDS011;4320;51.498;6.556;2023-05-14T14:21:30;3.97;;;3.00;;
8564;SDS011;4320;51.498;6.556;2023-05-14T14:23:56;4.85;;;2.88;;
8564;SDS011;4320;51.498;6.556;2023-05-14T14:26:22;3.95;;;3.50;;
8564;SDS011;4320;51.498;6.556;2023-05-14T14:28:48;4.63;;;3.38;;
8564;SDS011;4320;51.498;6.556;2023-05-14T14:31:14;4.25;;;3.85;;
8564;SDS011;4320;51.498;6.556;2023-05-14T14:33:40;6.55;;;3.33;;
8564;SDS011;4320;51.498;6.556;2023-05-14T14:36:07;8.77;;;3.60;;
8564;SDS011;4320;51.498;6.556;2023-05-14T14:38:33;7.20;;;3.50;;
8564;SDS011;4320;51.498;6.556;2023-05-14T14:40:58;6.45;;;3.80;;
8564;SDS011;4320;51.498;6.556;2023-05-14T14:43:27;6.05;;;3.38;;
8564;SDS011;4320;51.498;6.556;2023-05-14T14:45:52;5.03;;;3.38;;
8564;SDS011;4320;51.498;6.556;2023-05-14T14:50:46;7.13;;;3.67;;
8564;SDS011;4320;51.498;6.556;2023-05-14T14:53:12;4.20;;;3.80;;
8564;SDS011;4320;51.498;6.556;2023-05-14T14:55:38;6.78;;;3.92;;
8564;SDS011;4320;51.498;6.556;2023-05-14T14:58:03;4.03;;;3.50;;
8564;SDS011;4320;51.498;6.556;2023-05-14T15:00:29;4.03;;;3.60;;
8564;SDS011;4320;51.498;6.556;2023-05-14T15:02:54;3.50;;;3.20;;
8564;SDS011;4320;51.498;6.556;2023-05-14T15:05:20;7.43;;;3.58;;
8564;SDS011;4320;51.498;6.556;2023-05-14T15:07:46;9.32;;;3.72;;
8564;SDS011;4320;51.498;6.556;2023-05-14T15:10:11;3.75;;;3.45;;